createdAt,value
2024-01-11T00:01:13.411Z,97149.86
2024-01-11T00:03:41.451Z,97147.16
2024-01-11T00:06:09.474Z,97147.69
2024-01-11T00:08:37.597Z,97144.50
2024-01-11T00:11:05.739Z,97142.48
2024-01-11T00:13:33.974Z,97140.45
2024-01-11T00:16:01.874Z,97138.42
2024-01-11T00:18:30.122Z,97129.80
2024-01-11T00:20:58.076Z,97130.65
2024-01-11T00:23:26.006Z,97127.77
2024-01-11T00:25:54.333Z,97126.94
2024-01-11T00:28:22.546Z,97121.87
2024-01-11T00:30:50.481Z,97120.35
2024-01-11T00:33:18.536Z,97114.77
2024-01-11T00:35:46.561Z,97104.42
2024-01-11T00:38:14.942Z,97099.84
2024-01-11T00:40:42.997Z,97102.52
2024-01-11T00:43:10.924Z,97105.20
2024-01-11T00:45:39.401Z,97105.55
2024-01-11T00:48:07.558Z,97101.32
2024-01-11T00:50:35.688Z,97096.42
2024-01-11T00:53:04.286Z,97093.70
2024-01-11T00:55:32.282Z,97094.46
2024-01-11T00:58:00.399Z,97099.11
2024-01-11T01:00:28.377Z,97099.79
2024-01-11T01:02:56.394Z,97099.46
2024-01-11T01:05:24.555Z,97098.27
2024-01-11T01:07:52.638Z,97101.98
2024-01-11T01:10:20.682Z,97102.66
2024-01-11T01:12:48.713Z,97100.30
2024-01-11T01:15:16.741Z,97094.56
2024-01-11T01:17:44.695Z,97093.19
2024-01-11T01:20:12.836Z,97089.46
2024-01-11T01:22:40.761Z,97089.48
2024-01-11T01:25:09.305Z,97087.93
2024-01-11T01:27:37.357Z,97083.52
2024-01-11T01:30:06.182Z,97075.72
2024-01-11T01:32:34.497Z,97071.66
2024-01-11T01:35:02.684Z,97074.04
2024-01-11T01:37:30.769Z,97073.02
2024-01-11T01:39:58.677Z,97066.59
2024-01-11T01:42:26.680Z,97068.61
2024-01-11T01:44:54.768Z,97073.48
2024-01-11T01:47:23.036Z,97068.45
2024-01-11T01:49:51.305Z,97064.55
2024-01-11T01:52:20.830Z,97059.48
2024-01-11T01:54:51.035Z,97060.98
2024-01-11T01:57:21.052Z,97060.15
2024-01-11T01:59:52.930Z,97067.42
2024-01-11T02:02:22.574Z,97066.73
2024-01-11T02:04:51.067Z,97066.91
2024-01-11T02:07:20.194Z,97060.98
2024-01-11T02:09:49.194Z,97062.52
2024-01-11T02:12:17.814Z,97057.26
2024-01-11T02:14:46.426Z,97062.81
2024-01-11T02:17:14.665Z,97063.30
2024-01-11T02:19:42.677Z,97054.67
2024-01-11T02:22:20.030Z,97045.02
2024-01-11T02:24:48.106Z,97047.71
2024-01-11T02:27:16.039Z,97046.37
2024-01-11T02:29:44.104Z,97043.16
2024-01-11T02:32:13.264Z,97046.54
2024-01-11T02:34:41.848Z,97046.55
2024-01-11T02:37:10.180Z,97045.02
2024-01-11T02:39:39.145Z,97047.41
2024-01-11T02:42:07.152Z,97040.00
2024-01-11T02:44:35.242Z,97046.10
2024-01-11T02:47:03.443Z,97049.84
2024-01-11T02:49:31.492Z,97047.83
2024-01-11T02:51:59.496Z,97042.94
2024-01-11T02:54:27.574Z,97043.80
2024-01-11T02:56:55.710Z,97040.42
2024-01-11T02:59:24.955Z,97040.58
2024-01-11T03:01:53.200Z,97034.16
2024-01-11T03:04:21.349Z,97029.27
2024-01-11T03:06:49.565Z,97020.65
2024-01-11T03:09:17.558Z,97020.65
2024-01-11T03:11:45.581Z,97015.91
2024-01-11T03:14:13.765Z,97017.44
2024-01-11T03:16:42.824Z,97019.64
2024-01-11T03:19:10.919Z,97016.25
2024-01-11T03:21:48.095Z,97020.47
2024-01-11T03:24:16.253Z,97020.30
2024-01-11T03:26:44.326Z,97021.82
2024-01-11T03:29:12.584Z,97019.96
2024-01-11T03:31:42.781Z,97013.19
2024-01-11T03:34:10.875Z,97002.57
2024-01-11T03:36:39.026Z,96997.66
2024-01-11T03:39:07.307Z,96992.42
2024-01-11T03:41:35.496Z,96990.55
2024-01-11T03:44:03.817Z,96990.05
2024-01-11T03:46:32.899Z,96994.09
2024-01-11T03:49:01.109Z,96998.67
2024-01-11T03:51:29.255Z,96997.66
2024-01-11T03:53:57.278Z,96993.45
2024-01-11T03:56:25.348Z,96997.85
2024-01-11T03:58:53.307Z,96997.69
2024-01-11T04:01:21.677Z,96995.02
2024-01-11T04:03:50.662Z,96997.55
2024-01-11T04:06:23.489Z,96996.20
2024-01-11T04:08:52.142Z,96991.98
2024-01-11T04:11:20.273Z,96987.59
2024-01-11T04:13:48.286Z,96978.46
2024-01-11T04:16:16.324Z,96979.48
2024-01-11T04:18:44.544Z,96984.73
2024-01-11T04:21:25.548Z,96986.42
2024-01-11T04:23:53.648Z,96990.65
2024-01-11T04:26:22.567Z,96991.98
2024-01-11T04:28:51.462Z,96986.91
2024-01-11T04:31:19.694Z,96985.02
2024-01-11T04:33:47.936Z,96978.59
2024-01-11T04:36:15.988Z,96977.58
2024-01-11T04:38:45.448Z,96976.55
2024-01-11T04:41:14.718Z,96969.27
2024-01-11T04:43:44.717Z,96965.02
2024-01-11T04:46:20.661Z,96954.02
2024-01-11T04:48:50.257Z,96947.58
2024-01-11T04:51:19.059Z,96947.23
2024-01-11T04:53:47.598Z,96947.05
2024-01-11T04:56:17.135Z,96945.52
2024-01-11T04:58:46.258Z,96945.35
2024-01-11T05:01:16.062Z,96945.70
2024-01-11T05:03:45.856Z,96943.99
2024-01-11T05:06:17.980Z,96936.36
2024-01-11T05:08:50.169Z,96923.98
2024-01-11T05:11:18.988Z,96910.47
2024-01-11T05:13:49.030Z,96893.75
2024-01-11T05:16:24.493Z,96898.99
2024-01-11T05:18:53.887Z,96909.66
2024-01-11T05:21:22.912Z,96917.80
2024-01-11T05:23:52.166Z,96896.35
2024-01-11T05:26:21.572Z,96896.36
2024-01-11T05:28:50.039Z,96905.86
2024-01-11T05:31:18.735Z,96908.56
2024-01-11T05:33:48.066Z,96911.63
2024-01-11T05:36:16.701Z,96924.30
2024-01-11T05:38:46.560Z,96926.67
2024-01-11T05:41:15.259Z,96926.64
2024-01-11T05:43:44.263Z,96913.79
2024-01-11T05:46:12.478Z,96901.60
2024-01-11T05:48:40.878Z,96897.02
2024-01-11T05:51:10.521Z,96891.11
2024-01-11T05:53:38.667Z,96887.91
2024-01-11T05:56:10.638Z,96891.30
2024-01-11T05:58:39.731Z,96900.45
2024-01-11T06:01:08.065Z,96900.11
2024-01-11T06:03:36.409Z,96903.84
2024-01-11T06:06:05.049Z,96909.95
2024-01-11T06:08:33.544Z,96909.46
2024-01-11T06:11:01.738Z,96904.08
2024-01-11T06:13:29.793Z,96900.22
2024-01-11T06:15:57.835Z,96899.06
2024-01-11T06:18:25.832Z,96894.18
2024-01-11T06:20:53.867Z,96905.85
2024-01-11T06:23:22.139Z,96899.44
2024-01-11T06:25:50.208Z,96901.48
2024-01-11T06:28:18.226Z,96901.16
2024-01-11T06:30:46.148Z,96890.70
2024-01-11T06:33:14.390Z,96883.27
2024-01-11T06:35:42.779Z,96877.70
2024-01-11T06:38:10.968Z,96869.25
2024-01-11T06:40:39.158Z,96857.58
2024-01-11T06:43:07.135Z,96845.25
2024-01-11T06:45:35.086Z,96834.78
2024-01-11T06:48:03.407Z,96826.33
2024-01-11T06:50:31.574Z,96824.65
2024-01-11T06:52:59.765Z,96813.02
2024-01-11T06:55:27.858Z,96812.17
2024-01-11T06:57:56.026Z,96818.44
2024-01-11T07:00:24.529Z,96816.23
2024-01-11T07:02:54.694Z,96808.98
2024-01-11T07:05:23.004Z,96812.34
2024-01-11T07:07:51.021Z,96806.92
2024-01-11T07:10:19.130Z,96807.77
2024-01-11T07:12:49.219Z,96809.95
2024-01-11T07:15:18.339Z,96812.16
2024-01-11T07:17:46.536Z,96812.63
2024-01-11T07:20:16.918Z,96803.09
2024-01-11T07:22:45.397Z,96791.12
2024-01-11T07:25:13.378Z,96795.45
2024-01-11T07:27:41.457Z,96789.05
2024-01-11T07:30:10.955Z,96791.48
2024-01-11T07:32:39.341Z,96802.48
2024-01-11T07:35:12.314Z,96798.84
2024-01-11T07:37:42.324Z,96793.61
2024-01-11T07:40:14.785Z,96800.12
2024-01-11T07:42:44.221Z,96803.17
2024-01-11T07:45:12.398Z,96799.12
2024-01-11T07:47:41.000Z,96804.98
2024-01-11T07:50:16.287Z,96811.03
2024-01-11T07:52:44.491Z,96802.95
2024-01-11T07:55:14.116Z,96793.77
2024-01-11T07:57:43.261Z,96786.31
2024-01-11T08:00:11.451Z,96781.23
2024-01-11T08:02:42.576Z,96780.90
2024-01-11T08:05:11.058Z,96779.39
2024-01-11T08:07:39.344Z,96774.94
2024-01-11T08:10:08.336Z,96772.76
2024-01-11T08:12:37.982Z,96770.70
2024-01-11T08:15:06.503Z,96761.67
2024-01-11T08:17:34.694Z,96749.45
2024-01-11T08:20:02.774Z,96745.69
2024-01-11T08:22:34.991Z,96749.91
2024-01-11T08:25:05.734Z,96753.06
2024-01-11T08:27:34.614Z,96764.93
2024-01-11T08:30:03.387Z,96770.95
2024-01-11T08:32:32.689Z,96767.37
2024-01-11T08:35:01.801Z,96764.92
2024-01-11T08:37:29.912Z,96760.67
2024-01-11T08:39:58.509Z,96760.46
2024-01-11T08:42:26.749Z,96756.52
2024-01-11T08:44:54.791Z,96761.42
2024-01-11T08:47:22.895Z,96758.88
2024-01-11T08:49:51.258Z,96759.02
2024-01-11T08:52:19.265Z,96759.46
2024-01-11T08:54:47.474Z,96757.99
2024-01-11T08:57:15.486Z,96768.08
2024-01-11T08:59:43.834Z,96771.40
2024-01-11T09:02:16.651Z,96773.67
2024-01-11T09:04:48.670Z,96772.93
2024-01-11T09:07:18.265Z,96761.67
2024-01-11T09:09:53.647Z,96752.95
2024-01-11T09:12:25.192Z,96751.02
2024-01-11T09:14:53.420Z,96763.52
2024-01-11T09:17:23.127Z,96773.48
2024-01-11T09:19:52.512Z,96768.27
2024-01-11T09:22:20.691Z,96763.38
2024-01-11T09:24:48.803Z,96757.30
2024-01-11T09:27:16.932Z,96754.30
2024-01-11T09:29:46.418Z,96746.75
2024-01-11T09:32:15.068Z,96741.32
2024-01-11T09:34:46.399Z,96747.06
2024-01-11T09:37:14.525Z,96748.81
2024-01-11T09:39:43.754Z,96738.71
2024-01-11T09:42:12.305Z,96731.61
2024-01-11T09:44:42.751Z,96722.92
2024-01-11T09:47:16.049Z,96719.99
2024-01-11T09:49:47.099Z,96725.80
2024-01-11T09:52:16.776Z,96726.03
2024-01-11T09:54:44.907Z,96716.98
2024-01-11T09:57:13.120Z,96711.36
2024-01-11T09:59:42.761Z,96706.15
2024-01-11T10:02:12.712Z,96709.02
2024-01-11T10:04:43.363Z,96707.23
2024-01-11T10:07:11.922Z,96708.01
2024-01-11T10:09:40.055Z,96700.39
2024-01-11T10:12:10.344Z,96695.25
2024-01-11T10:14:38.756Z,96687.40
2024-01-11T10:17:07.497Z,96680.10
2024-01-11T10:19:35.672Z,96670.19
2024-01-11T10:22:04.284Z,96680.38
2024-01-11T10:24:32.363Z,96681.48
2024-01-11T10:27:04.855Z,96680.93
2024-01-11T10:29:34.402Z,96680.27
2024-01-11T10:32:02.606Z,96687.33
2024-01-11T10:34:34.674Z,96684.55
2024-01-11T10:37:05.725Z,96680.60
2024-01-11T10:39:36.642Z,96672.94
2024-01-11T10:42:08.033Z,96668.07
2024-01-11T10:44:37.461Z,96665.65
2024-01-11T10:47:09.024Z,96666.75
2024-01-11T10:49:42.102Z,96668.41
2024-01-11T10:52:13.790Z,96666.64
2024-01-11T10:54:44.766Z,96665.94
2024-01-11T10:57:14.301Z,96660.98
2024-01-11T10:59:44.714Z,96655.96
2024-01-11T11:02:16.149Z,96656.33
2024-01-11T11:04:46.419Z,96649.21
2024-01-11T11:07:16.212Z,96644.27
2024-01-11T11:09:46.833Z,96634.46
2024-01-11T11:12:16.016Z,96630.55
2024-01-11T11:14:45.616Z,96633.44
2024-01-11T11:17:16.720Z,96625.33
2024-01-11T11:19:44.981Z,96619.73
2024-01-11T11:22:16.193Z,96614.45
2024-01-11T11:24:44.386Z,96607.36
2024-01-11T11:27:15.899Z,96607.02
2024-01-11T11:29:49.127Z,96604.84
2024-01-11T11:32:21.026Z,96600.77
2024-01-11T11:34:50.896Z,96596.88
2024-01-11T11:37:25.654Z,96589.41
2024-01-11T11:39:53.677Z,96600.30
2024-01-11T11:42:27.627Z,96596.66
2024-01-11T11:45:03.748Z,96596.13
2024-01-11T11:47:37.399Z,96596.05
2024-01-11T11:50:08.722Z,96589.80
2024-01-11T11:52:43.502Z,96587.87
2024-01-11T11:55:13.222Z,96594.54
2024-01-11T11:57:45.044Z,96598.08
2024-01-11T12:00:16.401Z,96589.24
2024-01-11T12:02:44.904Z,96590.02
2024-01-11T12:05:13.419Z,96580.64
2024-01-11T12:07:41.829Z,96569.38
2024-01-11T12:10:10.013Z,96559.31
2024-01-11T12:12:38.127Z,96558.16
2024-01-11T12:15:09.438Z,96555.13
2024-01-11T12:17:40.038Z,96551.00
2024-01-11T12:20:08.471Z,96546.75
2024-01-11T12:22:36.634Z,96550.17
2024-01-11T12:25:05.897Z,96550.02
2024-01-11T12:27:34.064Z,96549.83
2024-01-11T12:30:02.440Z,96543.86
2024-01-11T12:32:31.747Z,96544.66
2024-01-11T12:35:00.244Z,96546.75
2024-01-11T12:37:31.650Z,96550.29
2024-01-11T12:40:00.369Z,96547.52
2024-01-11T12:42:29.065Z,96536.77
2024-01-11T12:44:59.361Z,96542.75
2024-01-11T12:47:29.087Z,96544.91
2024-01-11T12:49:57.470Z,96547.20
2024-01-11T12:52:28.388Z,96545.07
2024-01-11T12:54:58.008Z,96531.30
2024-01-11T12:57:26.339Z,96527.02
2024-01-11T12:59:54.656Z,96522.48
2024-01-11T13:02:22.751Z,96514.85
2024-01-11T13:04:51.964Z,96512.64
2024-01-11T13:07:20.294Z,96516.27
2024-01-11T13:09:48.297Z,96517.59
2024-01-11T13:12:16.529Z,96516.84
2024-01-11T13:14:44.717Z,96517.73
2024-01-11T13:17:12.840Z,96506.42
2024-01-11T13:19:41.214Z,96500.39
2024-01-11T13:22:09.243Z,96503.80
2024-01-11T13:24:37.290Z,96500.02
2024-01-11T13:27:05.764Z,96499.20
2024-01-11T13:29:33.922Z,96501.20
2024-01-11T13:32:04.601Z,96503.21
2024-01-11T13:34:33.716Z,96501.92
2024-01-11T13:37:04.149Z,96504.81
2024-01-11T13:39:32.477Z,96510.26
2024-01-11T13:42:00.565Z,96511.75
2024-01-11T13:44:28.642Z,96518.65
2024-01-11T13:46:56.745Z,96513.94
2024-01-11T13:49:26.398Z,96515.98
2024-01-11T13:52:00.764Z,96516.32
2024-01-11T13:54:30.079Z,96512.75
2024-01-11T13:56:58.232Z,96514.19
2024-01-11T13:59:27.261Z,96512.56
2024-01-11T14:01:55.364Z,96516.50
2024-01-11T14:04:25.034Z,96514.14
2024-01-11T14:06:53.507Z,96519.55
2024-01-11T14:09:23.256Z,96521.09
2024-01-11T14:11:51.802Z,96519.44
2024-01-11T14:14:22.028Z,96516.02
2024-01-11T14:16:52.313Z,96515.73
2024-01-11T14:19:20.402Z,96516.73
2024-01-11T14:21:48.487Z,96509.59
2024-01-11T14:24:23.894Z,96512.38
2024-01-11T14:26:58.017Z,96506.15
2024-01-11T14:29:26.083Z,96511.14
2024-01-11T14:31:54.132Z,96520.22
2024-01-11T14:34:23.794Z,96520.84
2024-01-11T14:36:53.438Z,96533.64
2024-01-11T14:39:23.011Z,96551.89
2024-01-11T14:41:51.098Z,96559.70
2024-01-11T14:44:20.062Z,96571.98
2024-01-11T14:46:48.310Z,96582.26
2024-01-11T14:49:16.374Z,96589.04
2024-01-11T14:51:44.632Z,96589.44
2024-01-11T14:54:12.667Z,96587.98
2024-01-11T14:56:41.019Z,96584.67
2024-01-11T14:59:09.154Z,96582.84
2024-01-11T15:01:37.306Z,96586.04
2024-01-11T15:04:06.352Z,96581.30
2024-01-11T15:06:34.809Z,96577.58
2024-01-11T15:09:03.807Z,96575.68
2024-01-11T15:11:37.034Z,96576.52
2024-01-11T15:14:06.439Z,96575.59
2024-01-11T15:16:34.484Z,96576.20
2024-01-11T15:19:02.625Z,96579.11
2024-01-11T15:21:31.732Z,96583.56
2024-01-11T15:24:00.664Z,96575.13
2024-01-11T15:26:28.991Z,96574.16
2024-01-11T15:28:57.209Z,96571.01
2024-01-11T15:31:27.372Z,96570.52
2024-01-11T15:33:58.870Z,96573.25
2024-01-11T15:36:28.516Z,96572.74
2024-01-11T15:39:04.554Z,96577.39
2024-01-11T15:41:42.425Z,96580.85
2024-01-11T15:44:10.782Z,96580.04
2024-01-11T15:46:39.582Z,96576.65
2024-01-11T15:49:08.217Z,96582.73
2024-01-11T15:51:36.464Z,96587.01
2024-01-11T15:54:04.460Z,96588.19
2024-01-11T15:56:32.443Z,96589.38
2024-01-11T15:59:04.035Z,96587.23
2024-01-11T16:01:34.659Z,96586.42
2024-01-11T16:04:05.489Z,96583.36
2024-01-11T16:06:34.357Z,96585.41
2024-01-11T16:09:02.488Z,96579.31
2024-01-11T16:11:31.089Z,96582.03
2024-01-11T16:14:00.672Z,96575.63
2024-01-11T16:16:28.689Z,96572.89
2024-01-11T16:18:56.896Z,96572.23
2024-01-11T16:21:29.709Z,96577.99
2024-01-11T16:24:03.238Z,96577.16
2024-01-11T16:26:32.234Z,96575.96
2024-01-11T16:29:02.993Z,96575.64
2024-01-11T16:31:31.033Z,96580.25
2024-01-11T16:33:59.521Z,96578.41
2024-01-11T16:36:28.209Z,96574.85
2024-01-11T16:38:56.795Z,96576.53
2024-01-11T16:41:25.794Z,96571.98
2024-01-11T16:43:54.141Z,96572.80
2024-01-11T16:46:29.311Z,96569.04
2024-01-11T16:48:57.757Z,96567.49
2024-01-11T16:51:25.946Z,96567.50
2024-01-11T16:53:54.136Z,96566.89
2024-01-11T16:56:22.425Z,96566.89
2024-01-11T16:58:50.459Z,96561.11
2024-01-11T17:01:18.691Z,96564.38
2024-01-11T17:03:46.741Z,96572.51
2024-01-11T17:06:19.930Z,96569.23
2024-01-11T17:08:49.188Z,96566.55
2024-01-11T17:11:17.618Z,96565.05
2024-01-11T17:13:45.983Z,96563.86
2024-01-11T17:16:18.094Z,96557.01
2024-01-11T17:18:47.303Z,96559.88
2024-01-11T17:21:16.042Z,96559.92
2024-01-11T17:23:44.536Z,96555.16
2024-01-11T17:26:12.900Z,96564.66
2024-01-11T17:28:41.099Z,96566.71
2024-01-11T17:31:09.198Z,96565.66
2024-01-11T17:33:37.672Z,96572.75
2024-01-11T17:36:06.582Z,96573.92
2024-01-11T17:38:34.847Z,96583.60
2024-01-11T17:41:03.073Z,96581.03
2024-01-11T17:43:31.136Z,96583.88
2024-01-11T17:45:59.291Z,96582.01
2024-01-11T17:48:27.422Z,96584.02
2024-01-11T17:50:56.190Z,96590.58
2024-01-11T17:53:38.190Z,96594.30
2024-01-11T17:56:06.521Z,96600.56
2024-01-11T17:58:34.485Z,96602.92
2024-01-11T18:01:02.531Z,96598.00
2024-01-11T18:03:30.573Z,96598.00
2024-01-11T18:05:58.778Z,96598.67
2024-01-11T18:08:26.908Z,96596.98
2024-01-11T18:10:55.028Z,96595.73
2024-01-11T18:13:23.379Z,96605.91
2024-01-11T18:16:08.410Z,96605.77
2024-01-11T18:18:36.993Z,96605.23
2024-01-11T18:21:05.447Z,96600.31
2024-01-11T18:23:33.624Z,96599.80
2024-01-11T18:26:01.760Z,96602.48
2024-01-11T18:28:29.903Z,96602.83
2024-01-11T18:30:58.276Z,96601.30
2024-01-11T18:33:28.152Z,96598.37
2024-01-11T18:35:56.368Z,96592.27
2024-01-11T18:38:24.490Z,96590.20
2024-01-11T18:40:52.775Z,96590.14
2024-01-11T18:43:20.998Z,96594.64
2024-01-11T18:45:51.231Z,96597.70
2024-01-11T18:48:20.600Z,96595.45
2024-01-11T18:50:49.078Z,96596.80
2024-01-11T18:53:18.592Z,96595.78
2024-01-11T18:55:47.005Z,96596.13
2024-01-11T18:58:18.462Z,96596.09
2024-01-11T19:00:46.566Z,96598.98
2024-01-11T19:03:16.345Z,96603.16
2024-01-11T19:06:03.227Z,96596.67
2024-01-11T19:08:32.157Z,96600.90
2024-01-11T19:11:00.833Z,96601.60
2024-01-11T19:13:29.060Z,96600.41
2024-01-11T19:15:57.248Z,96593.77
2024-01-11T19:18:25.494Z,96596.29
2024-01-11T19:20:55.490Z,96598.69
2024-01-11T19:23:28.148Z,96597.67
2024-01-11T19:25:58.368Z,96594.92
2024-01-11T19:28:26.386Z,96594.29
2024-01-11T19:30:54.820Z,96594.95
2024-01-11T19:33:23.137Z,96592.23
2024-01-11T19:35:51.366Z,96596.64
2024-01-11T19:38:20.882Z,96598.82
2024-01-11T19:40:48.998Z,96597.64
2024-01-11T19:43:17.092Z,96601.19
2024-01-11T19:45:45.201Z,96598.16
2024-01-11T19:48:13.848Z,96601.22
2024-01-11T19:50:42.727Z,96601.55
2024-01-11T19:53:10.786Z,96598.15
2024-01-11T19:55:41.357Z,96595.42
2024-01-11T19:58:12.723Z,96596.92
2024-01-11T20:00:42.275Z,96592.52
2024-01-11T20:03:10.779Z,96591.02
2024-01-11T20:05:38.827Z,96593.20
2024-01-11T20:08:06.915Z,96593.03
2024-01-11T20:10:35.061Z,96593.55
2024-01-11T20:13:18.004Z,96596.29
2024-01-11T20:16:00.091Z,96594.61
2024-01-11T20:18:29.737Z,96598.34
2024-01-11T20:20:59.059Z,96598.51
2024-01-11T20:23:27.294Z,96596.46
2024-01-11T20:25:55.986Z,96600.57
2024-01-11T20:28:38.304Z,96606.83
2024-01-11T20:31:06.587Z,96609.52
2024-01-11T20:33:36.404Z,96610.21
2024-01-11T20:36:07.174Z,96613.42
2024-01-11T20:38:36.026Z,96615.62
2024-01-11T20:41:04.279Z,96618.48
2024-01-11T20:43:32.344Z,96620.49
2024-01-11T20:46:00.511Z,96623.89
2024-01-11T20:48:28.811Z,96624.33
2024-01-11T20:50:56.988Z,96626.50
2024-01-11T20:53:25.188Z,96631.75
2024-01-11T20:55:53.369Z,96628.17
2024-01-11T20:58:21.370Z,96628.17
2024-01-11T21:00:49.504Z,96628.35
2024-01-11T21:03:17.485Z,96631.58
2024-01-11T21:05:49.310Z,96637.20
2024-01-11T21:08:17.457Z,96639.71
2024-01-11T21:10:45.730Z,96640.41
2024-01-11T21:13:14.849Z,96640.23
2024-01-11T21:15:44.950Z,96639.70
2024-01-11T21:18:14.319Z,96646.29
2024-01-11T21:20:44.590Z,96650.14
2024-01-11T21:23:13.137Z,96649.81
2024-01-11T21:25:41.313Z,96650.44
2024-01-11T21:28:11.735Z,96656.20
2024-01-11T21:30:41.515Z,96659.22
2024-01-11T21:33:09.551Z,96655.33
2024-01-11T21:35:37.764Z,96656.67
2024-01-11T21:38:05.977Z,96667.17
2024-01-11T21:40:33.998Z,96669.73
2024-01-11T21:43:02.502Z,96667.19
2024-01-11T21:45:30.565Z,96671.56
2024-01-11T21:47:58.635Z,96675.27
2024-01-11T21:50:26.714Z,96676.79
2024-01-11T21:52:54.998Z,96686.77
2024-01-11T21:55:23.171Z,96681.84
2024-01-11T21:57:51.836Z,96678.94
2024-01-11T22:00:20.238Z,96685.52
2024-01-11T22:02:48.266Z,96678.85
2024-01-11T22:05:17.002Z,96677.13
2024-01-11T22:07:53.498Z,96680.83
2024-01-11T22:10:21.969Z,96678.60
2024-01-11T22:12:50.101Z,96680.77
2024-01-11T22:15:18.374Z,96684.79
2024-01-11T22:17:46.751Z,96687.30
2024-01-11T22:20:15.281Z,96688.32
2024-01-11T22:22:43.336Z,96693.22
2024-01-11T22:25:11.322Z,96692.34
2024-01-11T22:27:39.390Z,96692.30
2024-01-11T22:30:09.012Z,96695.50
2024-01-11T22:32:38.063Z,96694.66
2024-01-11T22:35:07.911Z,96695.78
2024-01-11T22:37:36.459Z,96689.13
2024-01-11T22:40:18.689Z,96687.93
2024-01-11T22:42:46.828Z,96687.41
2024-01-11T22:45:14.904Z,96685.17
2024-01-11T22:47:42.966Z,96691.94
2024-01-11T22:50:11.158Z,96693.98
2024-01-11T22:52:39.661Z,96700.27
2024-01-11T22:55:10.410Z,96703.64
2024-01-11T22:57:38.915Z,96701.56
2024-01-11T23:00:22.426Z,96705.94
2024-01-11T23:02:53.793Z,96706.14
2024-01-11T23:05:22.317Z,96703.94
2024-01-11T23:07:50.522Z,96703.71
2024-01-11T23:10:32.827Z,96705.91
2024-01-11T23:13:17.228Z,96712.67
2024-01-11T23:15:45.572Z,96714.84
2024-01-11T23:18:13.874Z,96718.38
2024-01-11T23:20:42.088Z,96716.98
2024-01-11T23:23:11.098Z,96721.20
2024-01-11T23:25:39.198Z,96724.60
2024-01-11T23:28:08.213Z,96726.28
2024-01-11T23:30:36.458Z,96729.96
2024-01-11T23:33:05.035Z,96732.67
2024-01-11T23:35:33.156Z,96727.20
2024-01-11T23:38:01.188Z,96726.15
2024-01-11T23:40:29.125Z,96724.40
2024-01-11T23:42:58.450Z,96725.10
2024-01-11T23:45:26.456Z,96730.33
2024-01-11T23:47:56.964Z,96727.90
2024-01-11T23:50:25.123Z,96732.23
2024-01-11T23:52:53.100Z,96732.54
2024-01-11T23:55:21.127Z,96732.90
2024-01-11T23:57:49.109Z,96732.80
